Time;durP1;ratioP1;P1;durP2;ratioP2;P2;SDS_P1;SDS_P2;PMS_P1;PMS_P2;Temp;Humidity;BMP_temperature;BMP_pressure;BME280_temperature;BME280_humidity;BME280_pressure;Samples;Min_cycle;Max_cycle;Signal;HPM_P1;HPM_P2
2023/10/02 00:01:24;;;;;;;10.30;7.80;;;;;;;9.81;100.00;98654.73;109916;1284;22837;-85
2023/10/02 00:06:39;;;;;;;13.40;9.20;;;;;;;9.85;100.00;98654.24;109920;1284;22210;-85
2023/10/02 00:09:07;;;;;;;11.60;7.90;;;;;;;9.88;100.00;98656.12;109938;1278;22087;-85
2023/10/02 00:11:45;;;;;;;10.50;8.30;;;;;;;9.90;100.00;98650.52;109902;1281;22214;-85
2023/10/02 00:14:25;;;;;;;12.20;8.50;;;;;;;9.91;100.00;98651.54;109914;1284;22914;-85
2023/10/02 00:16:59;;;;;;;12.60;8.40;;;;;;;9.91;100.00;98642.82;109958;1278;22156;-85
2023/10/02 00:19:36;;;;;;;13.70;9.30;;;;;;;9.99;100.00;98640.84;109952;1277;22313;-85
2023/10/02 00:25:09;;;;;;;12.10;8.40;;;;;;;10.23;100.00;98639.33;109829;1285;22177;-85
2023/10/02 00:32:11;;;;;;;12.80;8.80;;;;;;;10.33;100.00;98639.89;109697;1285;180674;-85
2023/10/02 00:34:39;;;;;;;17.60;9.10;;;;;;;10.28;100.00;98639.41;109923;1278;23053;-87
2023/10/02 00:37:12;;;;;;;13.90;9.10;;;;;;;10.26;100.00;98638.88;109916;1284;22159;-86
2023/10/02 00:39:41;;;;;;;13.40;9.30;;;;;;;10.25;100.00;98643.23;109928;1284;22277;-85
2023/10/02 00:42:28;;;;;;;12.70;8.10;;;;;;;10.30;100.00;98636.02;109914;1284;22878;-85
2023/10/02 00:45:01;;;;;;;12.80;8.90;;;;;;;10.34;100.00;98638.05;109927;1284;22167;-85
2023/10/02 00:47:42;;;;;;;13.60;9.60;;;;;;;10.38;100.00;98640.28;109917;1278;23190;-85
2023/10/02 00:50:49;;;;;;;12.60;9.30;;;;;;;10.47;100.00;98637.63;109839;1284;22103;-85
2023/10/02 00:53:24;;;;;;;13.40;9.00;;;;;;;10.57;100.00;98635.85;109852;1284;22209;-85
2023/10/02 00:55:53;;;;;;;11.20;8.40;;;;;;;10.59;100.00;98635.67;109910;1277;22428;-85
2023/10/02 00:58:24;;;;;;;11.00;8.90;;;;;;;10.63;100.00;98634.13;109923;1284;22130;-85
2023/10/02 01:05:00;;;;;;;13.20;9.30;;;;;;;10.71;100.00;98636.08;109931;1278;22163;-85
2023/10/02 01:07:28;;;;;;;15.20;10.00;;;;;;;10.70;100.00;98637.52;109924;1278;22794;-85
2023/10/02 01:10:09;;;;;;;16.90;10.10;;;;;;;10.71;100.00;98636.29;109925;1278;22194;-85
2023/10/02 01:12:43;;;;;;;17.70;9.30;;;;;;;10.73;100.00;98638.05;109870;1285;22124;-85
2023/10/02 01:15:12;;;;;;;14.60;9.60;;;;;;;10.78;100.00;98636.72;109882;1277;22235;-85
2023/10/02 01:17:41;;;;;;;15.30;9.10;;;;;;;10.83;100.00;98640.45;109979;1278;22263;-85
2023/10/02 01:20:20;;;;;;;13.10;8.80;;;;;;;10.80;100.00;98637.51;109815;1284;22199;-85
2023/10/02 01:22:52;;;;;;;10.10;8.30;;;;;;;10.92;100.00;98641.02;109907;1284;22113;-85
2023/10/02 01:25:23;;;;;;;13.20;8.70;;;;;;;11.00;100.00;98649.05;109789;1281;22171;-85
2023/10/02 01:27:53;;;;;;;15.50;10.10;;;;;;;10.96;100.00;98648.98;109837;1284;22154;-85
2023/10/02 01:30:24;;;;;;;13.00;8.10;;;;;;;10.96;100.00;98641.74;109877;1285;22849;-85
2023/10/02 01:33:06;;;;;;;13.00;9.80;;;;;;;10.96;100.00;98641.32;109907;1278;22314;-84
2023/10/02 01:35:55;;;;;;;14.40;9.30;;;;;;;10.97;100.00;98647.95;109913;1284;22888;-85
2023/10/02 01:38:29;;;;;;;15.30;8.40;;;;;;;10.98;100.00;98650.31;109768;1284;22171;-85
2023/10/02 01:43:39;;;;;;;11.50;8.60;;;;;;;11.02;100.00;98657.55;109848;1284;22161;-85
2023/10/02 01:46:07;;;;;;;12.10;8.20;;;;;;;11.05;100.00;98656.77;109818;1277;22225;-85
2023/10/02 01:48:37;;;;;;;15.50;9.70;;;;;;;11.02;100.00;98658.56;109940;1278;22389;-85
2023/10/02 01:51:21;;;;;;;14.90;9.10;;;;;;;11.04;100.00;98659.36;109854;1286;22188;-85
2023/10/02 01:53:58;;;;;;;16.30;9.70;;;;;;;11.08;100.00;98657.56;109777;1284;22129;-86
2023/10/02 01:56:29;;;;;;;12.20;9.10;;;;;;;11.08;100.00;98655.87;109829;1276;22292;-85
2023/10/02 01:59:14;;;;;;;12.80;9.40;;;;;;;11.10;100.00;98657.54;109967;1278;22287;-85
2023/10/02 02:01:52;;;;;;;11.70;8.60;;;;;;;11.11;100.00;98658.02;109868;1284;22207;-85
2023/10/02 02:04:29;;;;;;;15.60;8.70;;;;;;;11.05;100.00;98657.52;109921;1284;22154;-85
2023/10/02 02:07:01;;;;;;;15.10;8.70;;;;;;;11.02;100.00;98654.69;109927;1277;22336;-85
2023/10/02 02:09:37;;;;;;;16.00;8.70;;;;;;;11.05;100.00;98652.83;109914;1284;22229;-85
2023/10/02 02:12:07;;;;;;;11.70;8.40;;;;;;;11.09;100.00;98651.08;109910;1284;22185;-85
2023/10/02 02:14:50;;;;;;;12.70;7.90;;;;;;;11.11;100.00;98651.70;109806;1284;22369;-85
2023/10/02 02:17:22;;;;;;;12.80;8.70;;;;;;;11.12;100.00;98649.10;109849;1284;22874;-85
2023/10/02 02:19:56;;;;;;;10.60;7.40;;;;;;;11.14;100.00;98646.72;109928;1284;22225;-85
2023/10/02 02:22:31;;;;;;;13.00;8.10;;;;;;;11.04;100.00;98642.33;109892;1285;22084;-85
2023/10/02 02:24:59;;;;;;;13.50;8.50;;;;;;;10.95;100.00;98639.77;109922;1284;22938;-85
2023/10/02 02:27:27;;;;;;;12.20;8.50;;;;;;;10.87;100.00;98640.84;109913;1284;22922;-85
2023/10/02 02:29:57;;;;;;;16.20;8.40;;;;;;;10.77;100.00;98637.38;109916;1284;22262;-85
2023/10/02 02:32:52;;;;;;;12.10;7.90;;;;;;;10.69;100.00;98639.05;109918;1271;22167;-85
2023/10/02 02:35:21;;;;;;;16.70;8.20;;;;;;;10.62;100.00;98636.13;109772;1286;22158;-85
2023/10/02 02:37:52;;;;;;;10.50;8.20;;;;;;;10.57;100.00;98636.01;109897;1284;22190;-85
2023/10/02 02:40:24;;;;;;;14.80;7.30;;;;;;;10.53;100.00;98639.80;109889;1284;22491;-85
2023/10/02 02:42:54;;;;;;;13.70;7.80;;;;;;;10.50;100.00;98641.07;109922;1278;22819;-85
2023/10/02 02:45:51;;;;;;;12.10;8.00;;;;;;;10.45;100.00;98642.98;109829;1284;22245;-86
2023/10/02 02:48:19;;;;;;;13.40;7.50;;;;;;;10.47;100.00;98650.58;109877;1284;23046;-84
2023/10/02 02:50:47;;;;;;;14.90;7.40;;;;;;;10.47;100.00;98655.11;109785;1278;22959;-84
2023/10/02 02:53:21;;;;;;;13.40;7.90;;;;;;;10.45;100.00;98654.25;109875;1284;22116;-85
2023/10/02 02:56:15;;;;;;;11.00;7.70;;;;;;;10.46;100.00;98653.90;109925;1284;22206;-85
2023/10/02 02:58:45;;;;;;;13.50;7.20;;;;;;;10.50;100.00;98654.86;109810;1280;22154;-84
2023/10/02 03:01:19;;;;;;;13.20;7.00;;;;;;;10.50;100.00;98651.10;109881;1278;22234;-85
2023/10/02 03:04:15;;;;;;;12.50;6.90;;;;;;;10.52;100.00;98650.64;109826;1284;22297;-85
2023/10/02 03:06:44;;;;;;;9.70;6.60;;;;;;;10.55;100.00;98651.97;109916;1284;23065;-85
2023/10/02 03:09:23;;;;;;;12.90;7.10;;;;;;;10.57;100.00;98651.55;109905;1278;22129;-84
2023/10/02 03:11:52;;;;;;;11.10;7.80;;;;;;;10.59;100.00;98651.84;109911;1284;22323;-84
2023/10/02 03:14:22;;;;;;;11.10;7.30;;;;;;;10.63;100.00;98647.45;109857;1284;22941;-85
2023/10/02 03:16:51;;;;;;;11.30;7.10;;;;;;;10.71;100.00;98650.41;109917;1271;22151;-85
2023/10/02 03:19:19;;;;;;;9.60;6.90;;;;;;;10.74;100.00;98653.26;109906;1284;22146;-85
2023/10/02 03:22:01;;;;;;;14.00;7.50;;;;;;;10.78;100.00;98655.90;109909;1284;22184;-85
2023/10/02 03:24:33;;;;;;;13.10;8.20;;;;;;;10.81;100.00;98652.97;109910;1284;22190;-85
2023/10/02 03:27:02;;;;;;;17.60;8.10;;;;;;;10.83;100.00;98648.91;109808;1284;22125;-85
2023/10/02 03:29:30;;;;;;;12.20;6.80;;;;;;;10.85;100.00;98653.77;109919;1284;22108;-84
2023/10/02 03:31:58;;;;;;;14.30;7.00;;;;;;;10.87;100.00;98651.68;109886;1284;22119;-85
2023/10/02 03:35:02;;;;;;;13.70;8.60;;;;;;;10.90;100.00;98651.39;109899;1277;22350;-85
2023/10/02 03:37:30;;;;;;;10.90;6.70;;;;;;;10.92;100.00;98651.48;109909;1284;22219;-84
2023/10/02 03:40:50;;;;;;;13.50;8.60;;;;;;;10.94;100.00;98651.85;109894;1278;23013;-84
2023/10/02 03:43:19;;;;;;;10.10;7.80;;;;;;;11.03;100.00;98655.91;109912;1278;22170;-82
2023/10/02 03:45:51;;;;;;;12.40;7.60;;;;;;;11.07;100.00;98651.48;109901;1279;22328;-84
2023/10/02 03:48:19;;;;;;;12.00;7.40;;;;;;;11.17;100.00;98656.13;109902;1285;22108;-84
2023/10/02 03:50:48;;;;;;;11.60;7.10;;;;;;;11.23;100.00;98651.16;109901;1284;22366;-84
2023/10/02 03:53:28;;;;;;;11.10;7.50;;;;;;;11.26;100.00;98657.77;109830;1284;22398;-84
2023/10/02 03:58:52;;;;;;;;;;;;;;;11.37;100.00;98651.61;109886;1284;22447;-84
2023/10/02 04:01:28;;;;;;;12.50;7.00;;;;;;;11.41;100.00;98654.48;109904;1284;22092;-85
2023/10/02 04:04:39;;;;;;;10.80;7.20;;;;;;;11.44;100.00;98653.34;109912;1284;22386;-85
2023/10/02 04:06:53;;;;;;;11.60;7.70;;;;;;;11.48;100.00;98650.17;109843;1284;22371;-84
2023/10/02 04:09:25;;;;;;;11.00;7.30;;;;;;;11.53;100.00;98653.73;109910;1278;22214;-84
2023/10/02 04:11:54;;;;;;;13.40;6.90;;;;;;;11.56;100.00;98653.75;109946;1278;23203;-85
2023/10/02 04:14:33;;;;;;;10.60;7.60;;;;;;;11.62;100.00;98656.48;109885;1277;22799;-85
2023/10/02 04:19:49;;;;;;;14.00;7.90;;;;;;;11.82;100.00;98663.94;109859;1284;22303;-87
2023/10/02 04:22:25;;;;;;;11.80;7.60;;;;;;;11.88;100.00;98663.20;109899;1284;22230;-88
2023/10/02 04:24:58;;;;;;;10.10;7.00;;;;;;;11.92;100.00;98668.17;109857;1278;22230;-86
2023/10/02 04:27:27;;;;;;;19.10;15.10;;;;;;;11.93;100.00;98670.85;109927;1284;22153;-85
2023/10/02 04:32:49;;;;;;;10.20;7.40;;;;;;;11.96;100.00;98669.19;109792;1280;22953;-83
2023/10/02 04:38:09;;;;;;;14.50;7.70;;;;;;;12.04;100.00;98669.79;109815;1274;22323;-85
2023/10/02 04:40:51;;;;;;;9.70;7.00;;;;;;;12.03;100.00;98671.80;109905;1281;22271;-86
2023/10/02 04:43:19;;;;;;;12.60;7.50;;;;;;;12.01;100.00;98676.21;109957;1277;22253;-86
2023/10/02 04:46:01;;;;;;;12.80;7.10;;;;;;;12.04;100.00;98673.16;109914;1278;22241;-86
2023/10/02 04:48:42;;;;;;;13.70;7.60;;;;;;;12.01;100.00;98666.36;109900;1283;22253;-85
2023/10/02 04:51:28;;;;;;;15.30;8.90;;;;;;;12.08;100.00;98670.67;109966;1278;22212;-86
2023/10/02 04:53:57;;;;;;;11.30;7.90;;;;;;;12.12;100.00;98665.16;109879;1277;22943;-85
2023/10/02 04:57:08;;;;;;;13.80;8.40;;;;;;;12.11;100.00;98670.41;109903;1277;22433;-84
2023/10/02 04:59:52;;;;;;;11.20;7.30;;;;;;;12.13;100.00;98670.23;109870;1274;23030;-82
2023/10/02 05:02:24;;;;;;;12.10;7.90;;;;;;;12.13;100.00;98674.45;109878;1278;22102;-81
2023/10/02 05:04:56;;;;;;;9.60;7.30;;;;;;;12.15;100.00;98675.89;109886;1284;22989;-81
2023/10/02 05:07:24;;;;;;;13.30;7.30;;;;;;;12.18;100.00;98675.64;109887;1284;22963;-81
2023/10/02 05:09:54;;;;;;;11.50;7.90;;;;;;;12.15;100.00;98680.47;109838;1284;22246;-83
2023/10/02 05:12:22;;;;;;;11.00;8.30;;;;;;;12.13;100.00;98684.66;109892;1284;22984;-82
2023/10/02 05:14:53;;;;;;;11.10;7.60;;;;;;;12.12;100.00;98685.85;109893;1278;22162;-83
2023/10/02 05:17:41;;;;;;;10.70;7.30;;;;;;;12.16;100.00;98685.70;109901;1278;22894;-84
2023/10/02 05:20:13;;;;;;;13.80;7.70;;;;;;;12.20;100.00;98686.45;109877;1284;22320;-80
2023/10/02 05:22:45;;;;;;;12.30;7.60;;;;;;;12.26;100.00;98686.05;109868;1284;23094;-82
2023/10/02 05:25:18;;;;;;;14.20;12.20;;;;;;;12.31;100.00;98690.53;109882;1284;22203;-82
2023/10/02 05:27:47;;;;;;;16.20;8.40;;;;;;;12.36;100.00;98692.42;109870;1277;22248;-80
2023/10/02 05:30:18;;;;;;;11.60;7.90;;;;;;;12.38;100.00;98695.20;109888;1284;22189;-81
2023/10/02 05:32:46;;;;;;;11.00;7.60;;;;;;;12.44;100.00;98693.23;109858;1284;22119;-81
2023/10/02 05:37:45;;;;;;;12.40;7.10;;;;;;;12.57;100.00;98696.61;109868;1269;22511;-78
2023/10/02 05:48:27;;;;;;;13.80;7.60;;;;;;;12.72;100.00;98704.23;109869;1285;22237;-81
2023/10/02 05:50:58;;;;;;;14.90;7.70;;;;;;;12.81;100.00;98702.16;109767;1284;22814;-81
2023/10/02 05:53:34;;;;;;;12.90;8.70;;;;;;;12.89;100.00;98702.10;109897;1284;22871;-81
2023/10/02 05:56:25;;;;;;;13.20;7.40;;;;;;;12.98;100.00;98702.88;109892;1284;22229;-81
2023/10/02 05:58:55;;;;;;;12.70;8.40;;;;;;;13.06;100.00;98702.38;109886;1284;22281;-81
2023/10/02 06:01:34;;;;;;;15.70;9.30;;;;;;;13.10;100.00;98699.21;109891;1284;22878;-81
2023/10/02 06:04:04;;;;;;;14.10;8.60;;;;;;;13.14;100.00;98702.83;109875;1284;23016;-81
2023/10/02 06:06:41;;;;;;;12.10;8.00;;;;;;;13.20;100.00;98700.63;109886;1284;22864;-82
2023/10/02 06:09:16;;;;;;;15.20;8.10;;;;;;;13.26;100.00;98701.41;109876;1281;22131;-81
2023/10/02 06:14:38;;;;;;;11.40;8.10;;;;;;;13.33;100.00;98708.23;109875;1284;22287;-81
2023/10/02 06:17:14;;;;;;;19.40;10.30;;;;;;;13.37;100.00;98713.86;109870;1281;22294;-81
2023/10/02 06:19:43;;;;;;;18.00;9.10;;;;;;;13.41;100.00;98713.63;109862;1281;22239;-81
2023/10/02 06:22:15;;;;;;;14.60;9.00;;;;;;;13.45;100.00;98716.81;109869;1284;22346;-81
2023/10/02 06:24:43;;;;;;;14.90;9.30;;;;;;;13.48;100.00;98724.66;109875;1274;22324;-81
2023/10/02 06:27:15;;;;;;;18.40;10.90;;;;;;;13.54;100.00;98724.66;109861;1281;22215;-81
2023/10/02 06:29:44;;;;;;;24.40;13.40;;;;;;;13.62;100.00;98727.78;109883;1285;22371;-81
2023/10/02 06:32:19;;;;;;;19.50;12.30;;;;;;;13.66;100.00;98726.02;109905;1281;22598;-81
2023/10/02 06:34:50;;;;;;;18.40;10.80;;;;;;;13.72;100.00;98725.64;109872;1278;22252;-82
2023/10/02 06:37:24;;;;;;;17.80;10.30;;;;;;;13.78;100.00;98728.08;109874;1278;22244;-82
2023/10/02 06:40:05;;;;;;;17.20;9.60;;;;;;;13.80;100.00;98730.21;109743;1284;22074;-82
2023/10/02 06:42:33;;;;;;;14.60;10.10;;;;;;;13.79;100.00;98729.08;109761;1284;22199;-82
2023/10/02 06:45:01;;;;;;;17.00;9.60;;;;;;;13.82;100.00;98729.31;109853;1281;22980;-81
2023/10/02 06:47:30;;;;;;;14.90;8.80;;;;;;;13.86;100.00;98728.02;109871;1284;23059;-82
2023/10/02 06:50:23;;;;;;;14.80;9.90;;;;;;;13.94;100.00;98726.91;109889;1285;22216;-82
2023/10/02 06:52:52;;;;;;;17.50;11.00;;;;;;;14.09;100.00;98722.05;109900;1275;22218;-82
2023/10/02 06:55:24;;;;;;;16.10;11.30;;;;;;;14.21;100.00;98726.40;109855;1278;22213;-82
2023/10/02 06:57:53;;;;;;;21.00;12.80;;;;;;;14.30;100.00;98726.31;109893;1278;22812;-82
2023/10/02 07:00:25;;;;;;;18.40;11.30;;;;;;;14.36;100.00;98730.25;109764;1285;22998;-81
2023/10/02 07:03:03;;;;;;;20.40;12.00;;;;;;;14.40;100.00;98728.65;109881;1277;22201;-81
2023/10/02 07:05:34;;;;;;;15.30;11.00;;;;;;;14.52;100.00;98730.73;109888;1275;22201;-81
2023/10/02 07:08:17;;;;;;;18.20;11.60;;;;;;;14.62;100.00;98730.99;109783;1284;22265;-81
2023/10/02 07:10:47;;;;;;;12.60;9.80;;;;;;;14.64;100.00;98730.73;109888;1284;22797;-81
2023/10/02 07:13:20;;;;;;;20.20;9.90;;;;;;;14.55;100.00;98733.35;109883;1281;22243;-81
2023/10/02 07:15:57;;;;;;;16.50;10.10;;;;;;;14.46;100.00;98729.50;109883;1284;22710;-81
2023/10/02 07:18:37;;;;;;;15.30;10.60;;;;;;;14.43;100.00;98735.30;109873;1281;23003;-82
2023/10/02 07:21:10;;;;;;;14.30;9.50;;;;;;;14.44;100.00;98734.84;109883;1281;22306;-81
2023/10/02 07:23:37;;;;;;;13.90;9.60;;;;;;;14.45;100.00;98736.67;109769;1284;22837;-81
2023/10/02 07:26:19;;;;;;;16.20;10.10;;;;;;;14.45;100.00;98734.27;109869;1285;22199;-81
2023/10/02 07:28:51;;;;;;;14.50;10.10;;;;;;;14.52;100.00;98740.85;109793;1284;23006;-81
2023/10/02 07:31:21;;;;;;;13.50;9.80;;;;;;;14.57;100.00;98742.42;109886;1281;22131;-80
2023/10/02 07:33:55;;;;;;;15.50;9.60;;;;;;;14.62;100.00;98745.90;109898;1281;22376;-80
2023/10/02 07:36:26;;;;;;;13.40;9.10;;;;;;;14.75;100.00;98745.12;109912;1279;23083;-80
2023/10/02 07:38:55;;;;;;;18.00;9.90;;;;;;;14.90;100.00;98744.55;109731;1285;22964;-80
2023/10/02 07:41:25;;;;;;;16.70;9.80;;;;;;;15.04;100.00;98745.27;109882;1284;23007;-81
2023/10/02 07:44:06;;;;;;;12.80;9.80;;;;;;;15.15;100.00;98743.28;109775;1285;23159;-80
2023/10/02 07:46:36;;;;;;;15.20;9.60;;;;;;;15.28;100.00;98744.98;109892;1285;22199;-81
2023/10/02 07:49:05;;;;;;;15.60;9.10;;;;;;;15.37;100.00;98743.99;109903;1271;22232;-81
2023/10/02 07:51:36;;;;;;;14.60;9.40;;;;;;;15.43;100.00;98746.30;109889;1285;22250;-81
2023/10/02 07:54:12;;;;;;;14.60;8.70;;;;;;;15.46;100.00;98745.90;109914;1284;22301;-81
2023/10/02 07:56:41;;;;;;;14.40;9.70;;;;;;;15.42;99.14;98749.42;109882;1284;22243;-82
2023/10/02 07:59:10;;;;;;;14.80;9.40;;;;;;;15.38;99.67;98748.12;109889;1277;22211;-82
2023/10/02 08:01:39;;;;;;;13.30;8.10;;;;;;;15.38;100.00;98744.25;109890;1284;22474;-82
2023/10/02 08:04:07;;;;;;;14.10;8.50;;;;;;;15.50;100.00;98750.75;109897;1284;22209;-81
2023/10/02 08:06:44;;;;;;;13.20;8.40;;;;;;;15.64;100.00;98741.41;109886;1284;22281;-82
2023/10/02 08:09:39;;;;;;;11.10;7.40;;;;;;;15.79;99.77;98741.86;109875;1284;22927;-81
2023/10/02 08:12:08;;;;;;;14.20;8.90;;;;;;;15.90;99.28;98738.59;109887;1285;22302;-81
2023/10/02 08:14:42;;;;;;;14.50;8.40;;;;;;;16.02;99.66;98739.47;109891;1284;22222;-82
2023/10/02 08:17:19;;;;;;;14.20;8.70;;;;;;;16.15;99.71;98730.50;109896;1285;22209;-81
2023/10/02 08:19:58;;;;;;;15.80;8.70;;;;;;;16.32;99.91;98728.35;109890;1284;22240;-81
2023/10/02 08:22:35;;;;;;;13.60;8.30;;;;;;;16.48;99.59;98723.42;109886;1281;22678;-81
2023/10/02 08:25:13;;;;;;;14.80;8.70;;;;;;;16.61;97.49;98724.73;109884;1278;22436;-80
2023/10/02 08:27:58;;;;;;;13.40;8.70;;;;;;;16.65;97.46;98724.28;109879;1285;22197;-80
2023/10/02 08:30:27;;;;;;;11.20;8.30;;;;;;;16.74;95.47;98729.55;109891;1284;22246;-80
2023/10/02 08:33:18;;;;;;;12.10;7.40;;;;;;;16.78;92.63;98732.17;109882;1284;22338;-80
2023/10/02 08:36:33;;;;;;;11.60;7.00;;;;;;;16.88;91.87;98734.35;109921;1279;22235;-81
2023/10/02 08:39:02;;;;;;;9.60;7.00;;;;;;;17.05;90.99;98734.98;109898;1285;22195;-81
2023/10/02 08:41:50;;;;;;;11.90;7.30;;;;;;;17.15;89.30;98733.42;109771;1285;22251;-81
2023/10/02 08:44:22;;;;;;;11.90;7.30;;;;;;;17.21;89.20;98734.70;109900;1269;22117;-81
2023/10/02 08:46:50;;;;;;;11.70;8.60;;;;;;;17.24;87.46;98735.53;109881;1284;22208;-81
2023/10/02 08:49:18;;;;;;;15.40;7.20;;;;;;;17.29;87.23;98733.61;109888;1284;22220;-81
2023/10/02 08:51:49;;;;;;;13.00;7.30;;;;;;;17.38;86.70;98735.10;109893;1285;23042;-81
2023/10/02 08:54:18;;;;;;;13.30;6.70;;;;;;;17.45;87.40;98728.09;109870;1284;22266;-81
2023/10/02 08:57:01;;;;;;;11.00;7.00;;;;;;;17.48;86.15;98733.77;109901;1285;22863;-81
2023/10/02 08:59:35;;;;;;;12.30;7.50;;;;;;;17.48;84.04;98735.71;109893;1274;22217;-81
2023/10/02 09:02:16;;;;;;;;;;;;;;;17.48;85.49;98729.41;109916;1269;22364;-81
2023/10/02 09:04:53;;;;;;;17.90;7.50;;;;;;;17.52;84.83;98721.61;109894;1284;22210;-81
2023/10/02 09:07:44;;;;;;;9.80;6.70;;;;;;;17.55;85.86;98721.31;109873;1284;22682;-81
2023/10/02 09:10:24;;;;;;;11.70;6.30;;;;;;;17.65;84.66;98720.33;109789;1278;22393;-81
2023/10/02 09:13:14;;;;;;;14.30;7.00;;;;;;;17.77;84.56;98720.36;109910;1280;22261;-81
2023/10/02 09:15:48;;;;;;;10.80;6.40;;;;;;;17.87;84.64;98715.47;109888;1284;22221;-81
2023/10/02 09:19:07;;;;;;;;;;;;;;;17.97;85.35;98707.16;109897;1262;23039;-81
2023/10/02 09:21:38;;;;;;;14.20;6.30;;;;;;;18.11;84.97;98712.13;109870;1284;22226;-81
2023/10/02 09:24:18;;;;;;;13.10;8.30;;;;;;;18.17;83.32;98712.35;109868;1284;23472;-81
2023/10/02 09:26:47;;;;;;;12.60;7.10;;;;;;;18.23;83.08;98706.34;109907;1284;23063;-81
2023/10/02 09:29:16;;;;;;;12.00;6.40;;;;;;;18.31;83.19;98713.38;109887;1281;22219;-81
2023/10/02 09:31:46;;;;;;;11.30;6.60;;;;;;;18.33;81.99;98719.58;109876;1281;22405;-81
2023/10/02 09:34:16;;;;;;;9.40;6.30;;;;;;;18.36;81.30;98712.85;109889;1285;23161;-81
2023/10/02 09:37:11;;;;;;;9.90;6.10;;;;;;;18.34;81.64;98709.19;109779;1277;22574;-81
2023/10/02 09:40:13;;;;;;;10.30;6.20;;;;;;;18.41;82.34;98702.04;109876;1285;22454;-81
2023/10/02 09:42:46;;;;;;;10.90;6.50;;;;;;;18.50;81.46;98704.35;109844;1282;22167;-81
2023/10/02 09:45:15;;;;;;;10.10;6.10;;;;;;;18.55;80.70;98705.23;109881;1284;22378;-81
2023/10/02 09:47:43;;;;;;;10.40;7.10;;;;;;;18.58;81.38;98707.46;109863;1285;22223;-81
2023/10/02 09:50:37;;;;;;;11.90;6.40;;;;;;;18.71;81.98;98706.69;109855;1285;22703;-81
2023/10/02 09:53:08;;;;;;;;;;;;;;;18.79;81.30;98708.81;109868;1271;23253;-81
2023/10/02 09:55:57;;;;;;;13.40;5.50;;;;;;;18.88;81.83;98709.92;109882;1285;22365;-81
2023/10/02 09:58:35;;;;;;;12.20;5.60;;;;;;;18.94;80.83;98708.20;109880;1284;23268;-80
2023/10/02 10:03:57;;;;;;;13.60;6.30;;;;;;;19.00;79.71;98713.10;109879;1275;22242;-81
2023/10/02 10:06:29;;;;;;;11.20;5.10;;;;;;;19.04;78.14;98714.96;109887;1270;22940;-80
2023/10/02 10:11:43;;;;;;;8.80;5.20;;;;;;;19.09;77.56;98710.33;109897;1284;22383;-80
2023/10/02 10:14:36;;;;;;;10.80;5.40;;;;;;;19.16;77.37;98710.58;109860;1285;23099;-80
2023/10/02 10:17:49;;;;;;;8.60;5.10;;;;;;;19.26;77.29;98711.62;109903;1285;22295;-80
2023/10/02 10:20:18;;;;;;;10.00;5.30;;;;;;;19.46;76.62;98714.84;109882;1279;22279;-80
2023/10/02 10:22:51;;;;;;;10.30;5.60;;;;;;;19.52;75.24;98711.91;109868;1285;22948;-80
2023/10/02 10:27:58;;;;;;;8.30;5.30;;;;;;;19.46;74.51;98710.00;109897;1285;22205;-80
2023/10/02 10:30:33;;;;;;;8.90;5.40;;;;;;;19.48;73.52;98717.70;109888;1285;22196;-80
2023/10/02 10:33:15;;;;;;;9.10;4.90;;;;;;;19.50;73.41;98714.11;109876;1279;22859;-81
2023/10/02 10:35:58;;;;;;;10.10;5.90;;;;;;;19.43;74.05;98710.84;109896;1285;22842;-80
2023/10/02 10:38:41;;;;;;;8.60;5.30;;;;;;;19.51;74.22;98709.60;109747;1285;23013;-80
2023/10/02 10:41:26;;;;;;;9.10;4.80;;;;;;;19.61;74.10;98710.75;109849;1278;22307;-80
2023/10/02 10:46:29;;;;;;;7.40;4.40;;;;;;;19.68;72.82;98706.69;109887;1284;22209;-80
2023/10/02 10:49:08;;;;;;;8.50;5.10;;;;;;;19.70;72.98;98705.85;109885;1284;22201;-80
2023/10/02 10:51:39;;;;;;;8.30;5.40;;;;;;;19.73;72.67;98702.57;109864;1284;22233;-80
2023/10/02 10:54:30;;;;;;;7.50;4.70;;;;;;;19.62;73.61;98697.72;109897;1273;22204;-80
2023/10/02 10:57:27;;;;;;;8.80;5.80;;;;;;;19.73;73.11;98695.40;109811;1269;22207;-80
2023/10/02 11:00:25;;;;;;;7.70;5.00;;;;;;;19.77;73.53;98690.84;109879;1271;22664;-80
2023/10/02 11:03:08;;;;;;;9.50;4.70;;;;;;;19.89;72.39;98691.64;109868;1285;22112;-80
2023/10/02 11:05:37;;;;;;;10.90;4.90;;;;;;;19.89;71.76;98683.81;109897;1272;22220;-80
2023/10/02 11:08:23;;;;;;;10.10;4.80;;;;;;;19.93;71.41;98684.88;109889;1284;22194;-80
2023/10/02 11:11:11;;;;;;;6.60;4.40;;;;;;;20.00;71.74;98682.35;109771;1285;22217;-80
2023/10/02 11:13:54;;;;;;;8.10;4.80;;;;;;;20.15;72.28;98679.10;109880;1285;22214;-81
2023/10/02 11:16:35;;;;;;;7.60;4.80;;;;;;;20.35;71.80;98679.88;109908;1284;22232;-81
2023/10/02 11:22:15;;;;;;;8.50;4.70;;;;;;;20.51;70.59;98672.84;109885;1284;22699;-80
2023/10/02 11:24:51;;;;;;;;;;;;;;;20.53;70.68;98666.95;109913;1280;22471;-81
2023/10/02 11:27:20;;;;;;;7.40;4.50;;;;;;;20.50;70.23;98668.33;109920;1273;22257;-81
2023/10/02 11:30:01;;;;;;;7.70;4.50;;;;;;;20.56;70.60;98664.94;109887;1284;23126;-81
2023/10/02 11:33:00;;;;;;;8.60;4.40;;;;;;;20.72;71.14;98663.52;109825;1284;22187;-81
2023/10/02 11:35:28;;;;;;;7.90;4.90;;;;;;;20.93;70.23;98660.46;109849;1284;22956;-81
2023/10/02 11:37:58;;;;;;;6.40;4.20;;;;;;;21.02;69.77;98664.77;109816;1284;22307;-80
2023/10/02 11:40:28;;;;;;;7.00;4.30;;;;;;;21.06;70.13;98660.17;109876;1284;22350;-80
2023/10/02 11:42:59;;;;;;;5.70;3.40;;;;;;;21.13;68.23;98666.48;109892;1280;22298;-80
2023/10/02 11:45:29;;;;;;;7.00;3.20;;;;;;;21.06;68.14;98666.78;109900;1284;22194;-80
2023/10/02 11:47:58;;;;;;;10.30;4.60;;;;;;;21.01;67.04;98660.27;109879;1279;22276;-80
2023/10/02 11:50:26;;;;;;;6.80;3.90;;;;;;;21.02;68.73;98657.87;109894;1284;22244;-80
2023/10/02 11:52:54;;;;;;;5.90;4.00;;;;;;;21.24;68.92;98657.61;109913;1285;22235;-80
2023/10/02 11:55:23;;;;;;;7.00;3.30;;;;;;;21.42;68.25;98653.42;109896;1285;22285;-80
2023/10/02 11:57:52;;;;;;;5.80;3.60;;;;;;;21.42;66.52;98653.67;109901;1280;22188;-80
2023/10/02 12:00:22;;;;;;;7.60;3.40;;;;;;;21.38;66.45;98650.02;109890;1285;22270;-81
2023/10/02 12:02:50;;;;;;;5.20;3.00;;;;;;;21.39;67.05;98647.30;109824;1284;22216;-80
2023/10/02 12:05:19;;;;;;;9.20;3.80;;;;;;;21.45;67.10;98646.06;109837;1274;22345;-80
2023/10/02 12:07:47;;;;;;;8.10;3.60;;;;;;;21.58;67.35;98646.55;109903;1282;22210;-80
2023/10/02 12:10:15;;;;;;;5.90;3.50;;;;;;;21.73;67.30;98639.64;109879;1285;23231;-80
2023/10/02 12:12:47;;;;;;;5.40;3.00;;;;;;;21.86;66.20;98636.65;109875;1285;22215;-80
2023/10/02 12:15:16;;;;;;;7.20;3.50;;;;;;;21.98;65.69;98635.23;109892;1270;23361;-79
2023/10/02 12:17:46;;;;;;;7.70;3.70;;;;;;;21.86;64.67;98636.81;109911;1285;22494;-81
2023/10/02 12:20:16;;;;;;;5.00;2.90;;;;;;;21.82;65.75;98637.02;109904;1279;22241;-81
2023/10/02 12:22:47;;;;;;;6.30;3.50;;;;;;;21.88;65.26;98633.80;109879;1283;22264;-80
2023/10/02 12:25:15;;;;;;;5.50;3.50;;;;;;;22.00;66.17;98630.23;109897;1285;22359;-80
2023/10/02 12:27:44;;;;;;;6.50;3.90;;;;;;;22.15;64.46;98626.19;109908;1277;22273;-80
2023/10/02 12:30:12;;;;;;;8.20;3.70;;;;;;;22.04;63.79;98624.61;109788;1283;23328;-78
2023/10/02 12:32:42;;;;;;;7.50;3.80;;;;;;;21.97;64.99;98620.45;109753;1277;198747;-80
2023/10/02 12:35:10;;;;;;;6.80;4.10;;;;;;;22.15;65.35;98616.95;109896;1269;22268;-80
2023/10/02 12:37:38;;;;;;;7.20;4.30;;;;;;;22.42;64.61;98617.40;109877;1281;22228;-80
2023/10/02 12:40:12;;;;;;;6.90;4.30;;;;;;;22.55;63.69;98615.48;109892;1285;22207;-80
2023/10/02 12:42:41;;;;;;;7.80;4.20;;;;;;;22.57;64.94;98615.61;109890;1277;22361;-79
2023/10/02 12:45:09;;;;;;;9.40;4.20;;;;;;;22.77;64.57;98620.32;109905;1273;22195;-79
2023/10/02 12:47:38;;;;;;;7.20;4.00;;;;;;;22.83;63.79;98613.61;109794;1284;22860;-80